createdAt,value
2023-11-15T00:01:16.482Z,0.90
2023-11-15T00:03:43.964Z,0.93
2023-11-15T00:06:13.688Z,1.20
2023-11-15T00:08:40.745Z,0.70
2023-11-15T00:11:10.931Z,1.42
2023-11-15T00:13:38.587Z,0.88
2023-11-15T00:16:06.096Z,1.38
2023-11-15T00:18:33.027Z,1.42
2023-11-15T00:20:59.967Z,0.85
2023-11-15T00:23:27.985Z,1.63
2023-11-15T00:25:56.097Z,0.80
2023-11-15T00:28:23.768Z,1.55
2023-11-15T00:30:51.034Z,1.08
2023-11-15T00:33:19.111Z,0.90
2023-11-15T00:35:46.788Z,0.93
2023-11-15T00:38:16.412Z,1.33
2023-11-15T00:40:43.682Z,0.95
2023-11-15T00:43:10.902Z,1.27
2023-11-15T00:45:37.994Z,1.40
2023-11-15T00:48:06.172Z,1.35
2023-11-15T00:50:33.246Z,1.90
2023-11-15T00:53:00.383Z,2.42
2023-11-15T00:55:27.429Z,1.23
2023-11-15T00:57:54.377Z,1.70
2023-11-15T01:00:28.651Z,1.27
2023-11-15T01:03:02.897Z,1.05
2023-11-15T01:05:30.346Z,1.48
2023-11-15T01:07:57.402Z,1.67
2023-11-15T01:10:26.349Z,1.23
2023-11-15T01:12:54.909Z,1.48
2023-11-15T01:15:23.340Z,1.70
2023-11-15T01:17:51.165Z,1.58
2023-11-15T01:20:18.609Z,1.33
2023-11-15T01:22:45.627Z,1.50
2023-11-15T01:25:14.077Z,1.30
2023-11-15T01:27:41.131Z,0.75
2023-11-15T01:30:10.218Z,0.80
2023-11-15T01:32:37.342Z,0.73
2023-11-15T01:35:06.996Z,1.05
2023-11-15T01:37:33.971Z,0.93
2023-11-15T01:40:08.017Z,0.77
2023-11-15T01:42:35.349Z,1.02
2023-11-15T01:45:04.201Z,1.13
2023-11-15T01:47:31.664Z,1.00
2023-11-15T01:49:59.493Z,1.10
2023-11-15T01:52:26.923Z,1.50
2023-11-15T01:54:56.645Z,1.17
2023-11-15T01:57:24.237Z,0.93
2023-11-15T01:59:51.984Z,0.93
2023-11-15T02:02:19.014Z,1.33
2023-11-15T02:04:45.928Z,1.17
2023-11-15T02:07:13.183Z,0.70
2023-11-15T02:09:42.523Z,1.00
2023-11-15T02:12:10.736Z,0.60
2023-11-15T02:14:39.061Z,1.05
2023-11-15T02:17:06.683Z,1.73
2023-11-15T02:19:34.261Z,1.13
2023-11-15T02:22:01.161Z,1.20
2023-11-15T02:24:28.349Z,1.70
2023-11-15T02:26:55.305Z,1.33
2023-11-15T02:29:22.640Z,1.33
2023-11-15T02:31:49.522Z,2.15
2023-11-15T02:34:16.429Z,1.27
2023-11-15T02:36:44.335Z,1.10
2023-11-15T02:39:11.905Z,1.23
2023-11-15T02:41:38.846Z,1.45
2023-11-15T02:44:05.998Z,0.60
2023-11-15T02:46:32.940Z,2.08
2023-11-15T02:48:59.970Z,0.90
2023-11-15T02:51:26.981Z,1.15
2023-11-15T02:53:53.983Z,0.80
2023-11-15T02:56:20.984Z,0.75
2023-11-15T02:58:48.053Z,1.23
2023-11-15T03:01:15.918Z,1.10
2023-11-15T03:03:43.304Z,0.63
2023-11-15T03:06:11.031Z,0.90
2023-11-15T03:08:38.281Z,0.98
2023-11-15T03:11:05.629Z,1.85
2023-11-15T03:13:32.773Z,1.00
2023-11-15T03:15:59.781Z,1.98
2023-11-15T03:18:27.184Z,1.73
2023-11-15T03:20:54.400Z,0.70
2023-11-15T03:23:21.298Z,0.77
2023-11-15T03:25:48.207Z,0.88
2023-11-15T03:28:15.122Z,0.50
2023-11-15T03:30:41.964Z,0.60
2023-11-15T03:33:09.025Z,0.50
2023-11-15T03:35:36.525Z,1.00
2023-11-15T03:38:03.470Z,0.80
2023-11-15T03:40:30.493Z,0.60
2023-11-15T03:42:57.396Z,1.10
2023-11-15T03:45:24.325Z,0.50
2023-11-15T03:47:51.301Z,0.60
2023-11-15T03:50:19.822Z,0.70
2023-11-15T03:52:46.745Z,0.50
2023-11-15T03:55:14.344Z,0.50
2023-11-15T03:57:42.264Z,0.50
2023-11-15T04:00:12.000Z,0.50
2023-11-15T04:02:39.282Z,0.45
2023-11-15T04:05:08.019Z,1.40
2023-11-15T04:07:35.013Z,0.40
2023-11-15T04:10:02.560Z,0.60
2023-11-15T04:12:29.525Z,2.38
2023-11-15T04:14:56.428Z,1.35
2023-11-15T04:17:23.524Z,0.30
2023-11-15T04:19:50.522Z,0.45
2023-11-15T04:22:18.086Z,0.50
2023-11-15T04:24:45.830Z,1.70
2023-11-15T04:27:14.457Z,0.93
2023-11-15T04:29:45.150Z,0.50
2023-11-15T04:32:12.097Z,0.47
2023-11-15T04:34:39.088Z,0.60
2023-11-15T04:37:06.237Z,0.75
2023-11-15T04:39:33.136Z,0.43
2023-11-15T04:42:00.142Z,0.35
2023-11-15T04:44:29.008Z,0.40
2023-11-15T04:46:56.457Z,0.40
2023-11-15T04:49:23.416Z,0.30
2023-11-15T04:51:50.336Z,0.60
2023-11-15T04:54:17.255Z,0.50
2023-11-15T04:56:44.203Z,0.40
2023-11-15T04:59:11.130Z,0.60
2023-11-15T05:01:39.350Z,0.60
2023-11-15T05:04:06.640Z,0.60
2023-11-15T05:06:33.856Z,0.45
2023-11-15T05:09:01.078Z,0.30
2023-11-15T05:11:28.058Z,0.40
2023-11-15T05:13:55.069Z,0.45
2023-11-15T05:16:22.078Z,0.75
2023-11-15T05:18:49.409Z,0.70
2023-11-15T05:21:16.363Z,1.60
2023-11-15T05:23:43.331Z,0.40
2023-11-15T05:26:10.702Z,0.30
2023-11-15T05:28:37.842Z,0.40
2023-11-15T05:31:05.077Z,0.45
2023-11-15T05:33:32.113Z,0.40
2023-11-15T05:35:59.204Z,0.40
2023-11-15T05:38:26.334Z,0.80
2023-11-15T05:40:53.643Z,0.50
2023-11-15T05:43:20.532Z,0.40
2023-11-15T05:45:47.448Z,0.50
2023-11-15T05:48:14.526Z,0.50
2023-11-15T05:50:41.700Z,0.40
2023-11-15T05:53:09.613Z,0.30
2023-11-15T05:55:36.562Z,0.35
2023-11-15T05:58:04.937Z,0.50
2023-11-15T06:00:33.101Z,0.50
2023-11-15T06:03:00.159Z,0.90
2023-11-15T06:05:27.251Z,0.60
2023-11-15T06:07:54.316Z,0.40
2023-11-15T06:10:21.263Z,0.40
2023-11-15T06:12:48.194Z,0.40
2023-11-15T06:15:15.713Z,0.40
2023-11-15T06:17:43.649Z,0.40
2023-11-15T06:20:11.712Z,2.25
2023-11-15T06:22:43.293Z,0.75
2023-11-15T06:25:10.731Z,0.40
2023-11-15T06:27:38.944Z,0.30
2023-11-15T06:30:10.925Z,0.93
2023-11-15T06:32:38.085Z,0.40
2023-11-15T06:35:05.871Z,0.60
2023-11-15T06:37:35.390Z,0.52
2023-11-15T06:40:09.265Z,0.50
2023-11-15T06:42:36.512Z,0.60
2023-11-15T06:45:04.858Z,0.82
2023-11-15T06:47:31.827Z,0.65
2023-11-15T06:50:02.026Z,0.50
2023-11-15T06:52:29.644Z,0.70
2023-11-15T06:54:57.528Z,0.40
2023-11-15T06:57:24.683Z,0.40
2023-11-15T06:59:54.980Z,0.85
2023-11-15T07:02:22.444Z,0.93
2023-11-15T07:04:49.310Z,0.75
2023-11-15T07:07:16.191Z,0.55
2023-11-15T07:09:45.723Z,0.50
2023-11-15T07:12:12.908Z,0.40
2023-11-15T07:14:39.935Z,1.58
2023-11-15T07:17:09.018Z,0.47
2023-11-15T07:19:35.933Z,0.50
2023-11-15T07:22:02.828Z,1.02
2023-11-15T07:24:30.407Z,0.90
2023-11-15T07:26:58.176Z,0.40
2023-11-15T07:29:27.718Z,0.70
2023-11-15T07:31:55.009Z,0.98
2023-11-15T07:34:25.073Z,2.05
2023-11-15T07:36:55.196Z,0.40
2023-11-15T07:39:22.180Z,0.65
2023-11-15T07:41:49.158Z,0.52
2023-11-15T07:44:19.634Z,0.50
2023-11-15T07:46:48.239Z,1.13
2023-11-15T07:49:19.972Z,0.45
2023-11-15T07:51:47.423Z,0.60
2023-11-15T07:54:15.513Z,1.20
2023-11-15T07:56:43.639Z,0.70
2023-11-15T07:59:12.610Z,0.70
2023-11-15T08:01:45.833Z,0.50
2023-11-15T08:04:16.007Z,1.23
2023-11-15T08:06:43.916Z,0.75
2023-11-15T08:09:26.444Z,0.98
2023-11-15T08:14:22.986Z,0.68
2023-11-15T08:16:53.420Z,0.57
2023-11-15T08:19:20.392Z,0.65
2023-11-15T08:21:49.232Z,0.60
2023-11-15T08:24:22.851Z,0.50
2023-11-15T08:26:59.350Z,0.90
2023-11-15T08:29:26.317Z,0.80
2023-11-15T08:31:53.259Z,0.98
2023-11-15T08:34:24.049Z,0.57
2023-11-15T08:36:53.615Z,0.90
2023-11-15T08:39:24.202Z,0.55
2023-11-15T08:41:51.323Z,0.80
2023-11-15T08:44:19.514Z,0.82
2023-11-15T08:46:47.028Z,0.60
2023-11-15T08:49:15.181Z,0.50
2023-11-15T08:51:46.659Z,0.70
2023-11-15T08:54:13.838Z,1.08
2023-11-15T08:56:43.709Z,0.70
2023-11-15T08:59:15.573Z,1.35
2023-11-15T09:01:44.098Z,0.82
2023-11-15T09:04:14.664Z,0.77
2023-11-15T09:06:49.272Z,0.57
2023-11-15T09:09:17.520Z,0.60
2023-11-15T09:11:44.881Z,1.48
2023-11-15T09:14:12.000Z,0.70
2023-11-15T09:16:38.929Z,0.85
2023-11-15T09:19:06.278Z,0.82
2023-11-15T09:21:34.971Z,0.70
2023-11-15T09:24:02.631Z,1.30
2023-11-15T09:26:29.719Z,0.60
2023-11-15T09:28:56.648Z,1.05
2023-11-15T09:31:24.355Z,0.60
2023-11-15T09:33:53.613Z,0.38
2023-11-15T09:36:20.780Z,0.80
2023-11-15T09:38:47.748Z,0.45
2023-11-15T09:41:14.794Z,0.32
2023-11-15T09:43:42.971Z,1.02
2023-11-15T09:46:14.168Z,0.55
2023-11-15T09:48:53.392Z,1.17
2023-11-15T09:54:05.223Z,0.40
2023-11-15T09:56:42.306Z,0.50
2023-11-15T10:01:43.217Z,0.85
2023-11-15T10:04:21.418Z,0.40
2023-11-15T10:06:48.888Z,0.40
2023-11-15T10:09:16.335Z,0.60
2023-11-15T10:11:49.675Z,0.50
2023-11-15T10:14:17.049Z,0.65
2023-11-15T10:16:49.932Z,1.02
2023-11-15T10:22:02.399Z,0.50
2023-11-15T10:24:29.925Z,0.50
2023-11-15T10:27:08.930Z,0.40
2023-11-15T10:29:39.159Z,0.40
2023-11-15T10:32:06.489Z,0.50
2023-11-15T10:34:34.846Z,0.60
2023-11-15T10:37:13.805Z,1.42
2023-11-15T10:39:51.419Z,0.75
2023-11-15T10:42:20.300Z,0.60
2023-11-15T10:44:49.625Z,0.63
2023-11-15T10:47:20.958Z,0.77
2023-11-15T10:49:58.192Z,0.40
2023-11-15T10:52:26.343Z,0.70
2023-11-15T10:54:57.948Z,0.50
2023-11-15T10:57:29.214Z,0.40
2023-11-15T10:59:57.927Z,0.45
2023-11-15T11:02:26.697Z,1.05
2023-11-15T11:04:55.928Z,0.38
2023-11-15T11:07:45.109Z,0.80
2023-11-15T11:10:33.117Z,0.70
2023-11-15T11:13:00.113Z,0.63
2023-11-15T11:15:33.897Z,0.50
2023-11-15T11:18:28.703Z,0.40
2023-11-15T11:21:03.663Z,0.40
2023-11-15T11:23:35.368Z,0.50
2023-11-15T11:26:35.664Z,0.85
2023-11-15T11:29:04.697Z,0.57
2023-11-15T11:31:32.111Z,1.10
2023-11-15T11:34:26.412Z,0.88
2023-11-15T11:37:00.107Z,0.60
2023-11-15T11:39:47.607Z,0.47
2023-11-15T11:42:25.734Z,0.43
2023-11-15T11:44:56.715Z,0.55
2023-11-15T11:47:24.733Z,1.98
2023-11-15T11:49:53.579Z,0.40
2023-11-15T11:52:22.283Z,1.20
2023-11-15T11:54:54.217Z,0.47
2023-11-15T11:57:28.392Z,0.30
2023-11-15T12:00:20.528Z,0.40
2023-11-15T12:02:54.458Z,0.45
2023-11-15T12:05:27.225Z,0.57
2023-11-15T12:07:56.445Z,0.50
2023-11-15T12:10:24.657Z,0.43
2023-11-15T12:13:07.093Z,0.50
2023-11-15T12:15:37.630Z,0.38
2023-11-15T12:18:06.830Z,0.50
2023-11-15T12:20:41.070Z,0.60
2023-11-15T12:23:09.689Z,0.30
2023-11-15T12:25:57.130Z,1.52
2023-11-15T12:28:32.781Z,0.47
2023-11-15T12:31:05.471Z,0.60
2023-11-15T12:33:35.929Z,0.60
2023-11-15T12:36:08.238Z,0.50
2023-11-15T12:38:35.942Z,0.47
2023-11-15T12:41:07.757Z,0.47
2023-11-15T12:43:35.666Z,0.45
2023-11-15T12:46:16.358Z,0.50
2023-11-15T12:48:46.962Z,0.60
2023-11-15T12:51:13.946Z,0.40
2023-11-15T12:53:42.954Z,0.38
2023-11-15T12:56:18.852Z,0.52
2023-11-15T12:58:49.759Z,0.30
2023-11-15T13:01:19.417Z,0.73
2023-11-15T13:03:48.373Z,0.43
2023-11-15T13:06:17.578Z,0.60
2023-11-15T13:08:49.729Z,0.60
2023-11-15T13:11:26.420Z,0.40
2023-11-15T13:13:53.968Z,0.47
2023-11-15T13:16:23.536Z,0.30
2023-11-15T13:18:51.353Z,0.30
2023-11-15T13:21:21.028Z,0.30
2023-11-15T13:23:49.354Z,0.40
2023-11-15T13:26:16.970Z,0.40
2023-11-15T13:28:45.841Z,0.50
2023-11-15T13:31:17.008Z,0.38
2023-11-15T13:36:23.328Z,0.40
2023-11-15T13:38:50.615Z,0.50
2023-11-15T13:41:23.688Z,0.30
2023-11-15T13:43:53.797Z,0.52
2023-11-15T13:46:24.911Z,0.50
2023-11-15T13:48:54.343Z,0.25
2023-11-15T13:51:23.185Z,0.60
2023-11-15T13:53:50.494Z,0.40
2023-11-15T13:56:17.495Z,0.30
2023-11-15T13:58:44.432Z,0.30
2023-11-15T14:01:12.433Z,0.30
2023-11-15T14:03:40.060Z,0.40
2023-11-15T14:06:08.397Z,0.30
2023-11-15T14:08:50.999Z,0.40
2023-11-15T14:11:25.714Z,0.30
2023-11-15T14:13:52.800Z,0.40
2023-11-15T14:16:22.488Z,0.20
2023-11-15T14:18:51.782Z,0.30
2023-11-15T14:21:18.979Z,0.30
2023-11-15T14:23:46.023Z,0.35
2023-11-15T14:26:15.607Z,0.30
2023-11-15T14:28:45.010Z,0.30
2023-11-15T14:31:12.407Z,0.85
2023-11-15T14:33:40.227Z,0.30
2023-11-15T14:36:12.847Z,0.28
2023-11-15T14:38:39.899Z,0.30
2023-11-15T14:41:07.183Z,0.20
2023-11-15T14:43:35.001Z,0.30
2023-11-15T14:46:02.809Z,0.60
2023-11-15T14:48:30.123Z,0.30
2023-11-15T14:50:58.954Z,1.58
2023-11-15T14:53:26.246Z,0.35
2023-11-15T14:55:53.362Z,0.25
2023-11-15T14:58:20.442Z,0.90
2023-11-15T15:00:48.080Z,0.30
2023-11-15T15:03:16.447Z,0.30
2023-11-15T15:05:43.593Z,0.75
2023-11-15T15:08:13.358Z,0.40
2023-11-15T15:10:40.518Z,0.40
2023-11-15T15:13:11.354Z,0.25
2023-11-15T15:15:40.204Z,0.43
2023-11-15T15:18:13.444Z,0.35
2023-11-15T15:20:45.439Z,0.30
2023-11-15T15:23:14.328Z,0.30
2023-11-15T15:25:43.220Z,0.40
2023-11-15T15:28:13.943Z,0.40
2023-11-15T15:30:40.889Z,0.40
2023-11-15T15:33:08.996Z,0.40
2023-11-15T15:35:36.543Z,0.75
2023-11-15T15:38:04.130Z,2.47
2023-11-15T15:40:36.725Z,0.40
2023-11-15T15:43:05.549Z,0.40
2023-11-15T15:45:32.588Z,0.30
2023-11-15T15:48:00.652Z,0.40
2023-11-15T15:50:28.334Z,0.28
2023-11-15T15:52:56.464Z,0.40
2023-11-15T15:55:23.911Z,0.50
2023-11-15T15:57:51.144Z,0.50
2023-11-15T16:00:18.804Z,0.60
2023-11-15T16:02:48.604Z,0.93
2023-11-15T16:05:17.815Z,0.30
2023-11-15T16:07:47.627Z,0.30
2023-11-15T16:10:14.950Z,0.20
2023-11-15T16:12:42.036Z,0.30
2023-11-15T16:15:18.338Z,0.40
2023-11-15T16:17:46.538Z,0.50
2023-11-15T16:26:47.982Z,0.30
2023-11-15T16:29:19.081Z,0.50
2023-11-15T16:35:22.046Z,1.30
2023-11-15T16:37:54.759Z,0.50
2023-11-15T16:41:14.714Z,0.30
2023-11-15T16:43:42.170Z,0.50
2023-11-15T16:46:12.009Z,0.28
2023-11-15T16:48:39.610Z,1.08
2023-11-15T16:51:07.511Z,0.68
2023-11-15T16:53:34.515Z,0.40
2023-11-15T16:56:01.672Z,0.60
2023-11-15T16:58:28.651Z,0.57
2023-11-15T17:00:55.667Z,0.35
2023-11-15T17:03:24.338Z,0.40
2023-11-15T17:06:01.114Z,0.45
2023-11-15T17:08:28.781Z,0.40
2023-11-15T17:10:55.768Z,0.63
2023-11-15T17:13:24.332Z,0.60
2023-11-15T17:15:52.736Z,0.40
2023-11-15T17:18:19.964Z,0.50
2023-11-15T17:20:47.031Z,0.50
2023-11-15T17:23:14.006Z,0.40
2023-11-15T17:25:41.403Z,0.50
2023-11-15T17:28:10.591Z,0.40
2023-11-15T17:30:38.177Z,0.50
2023-11-15T17:33:05.504Z,0.30
2023-11-15T17:35:32.585Z,0.70
2023-11-15T17:37:59.669Z,0.55
2023-11-15T17:40:26.567Z,0.50
2023-11-15T17:42:53.571Z,0.70
2023-11-15T17:45:20.537Z,1.30
2023-11-15T17:47:47.754Z,1.00
2023-11-15T17:50:14.910Z,1.63
2023-11-15T17:52:43.697Z,2.00
2023-11-15T17:55:15.611Z,0.88
2023-11-15T17:57:45.079Z,0.98
2023-11-15T18:00:14.472Z,0.77
2023-11-15T18:02:42.678Z,0.88
2023-11-15T18:05:13.933Z,1.63
2023-11-15T18:07:44.729Z,0.80
2023-11-15T18:10:14.802Z,1.40
2023-11-15T18:12:43.389Z,1.42
2023-11-15T18:15:11.288Z,1.70
2023-11-15T18:17:38.318Z,1.08
2023-11-15T18:20:08.763Z,1.10
2023-11-15T18:22:35.791Z,1.10
2023-11-15T18:25:05.844Z,1.00
2023-11-15T18:27:34.136Z,1.13
2023-11-15T18:30:03.403Z,1.10
2023-11-15T18:32:30.528Z,1.02
2023-11-15T18:34:57.791Z,0.98
2023-11-15T18:37:24.812Z,0.80
2023-11-15T18:39:52.781Z,1.20
2023-11-15T18:42:20.166Z,0.77
2023-11-15T18:44:47.483Z,1.00
2023-11-15T18:47:14.504Z,1.17
2023-11-15T18:49:50.453Z,1.00
2023-11-15T18:52:17.478Z,2.88
2023-11-15T18:54:44.463Z,2.30
2023-11-15T18:57:11.547Z,1.67
2023-11-15T18:59:42.757Z,2.30
2023-11-15T19:02:09.721Z,2.00
2023-11-15T19:04:36.746Z,2.05
2023-11-15T19:07:06.784Z,2.13
2023-11-15T19:09:47.403Z,1.90
2023-11-15T19:12:14.466Z,1.70
2023-11-15T19:14:41.470Z,1.80
2023-11-15T19:17:10.597Z,1.92
2023-11-15T19:19:46.826Z,1.52
2023-11-15T19:22:13.833Z,1.27
2023-11-15T19:24:40.752Z,1.70
2023-11-15T19:27:09.147Z,1.45
2023-11-15T19:29:49.955Z,1.92
2023-11-15T19:32:17.343Z,1.10
2023-11-15T19:34:45.216Z,1.63
2023-11-15T19:37:12.234Z,1.40
2023-11-15T19:39:45.323Z,1.45
2023-11-15T19:42:13.728Z,1.38
2023-11-15T19:44:42.084Z,2.05
2023-11-15T19:47:09.867Z,2.00
2023-11-15T19:49:36.851Z,2.13
2023-11-15T19:52:11.077Z,1.83
2023-11-15T19:54:38.026Z,1.90
2023-11-15T19:57:06.417Z,2.20
2023-11-15T19:59:55.496Z,2.88
2023-11-15T20:02:23.836Z,2.45
2023-11-15T20:04:52.337Z,2.13
2023-11-15T20:07:19.378Z,2.20
2023-11-15T20:09:54.861Z,2.72
2023-11-15T20:12:24.875Z,2.20
2023-11-15T20:14:52.081Z,2.35
2023-11-15T20:17:19.212Z,2.08
2023-11-15T20:19:48.706Z,2.90
2023-11-15T20:22:16.111Z,2.70
2023-11-15T20:24:43.105Z,2.17
2023-11-15T20:27:10.294Z,2.28
2023-11-15T20:29:46.630Z,2.30
2023-11-15T20:32:13.658Z,1.55
2023-11-15T20:34:40.668Z,2.17
2023-11-15T20:37:07.884Z,2.67
2023-11-15T20:39:37.008Z,2.85
2023-11-15T20:42:04.140Z,3.50
2023-11-15T20:44:31.733Z,3.08
2023-11-15T20:47:04.145Z,2.45
2023-11-15T20:49:32.674Z,2.28
2023-11-15T20:51:59.661Z,1.98
2023-11-15T20:54:31.362Z,2.70
2023-11-15T20:57:00.261Z,2.88
2023-11-15T20:59:27.288Z,2.30
2023-11-15T21:01:54.642Z,2.80
2023-11-15T21:04:22.531Z,2.67
2023-11-15T21:06:50.083Z,2.10
2023-11-15T21:09:17.231Z,2.30
2023-11-15T21:11:45.070Z,2.08
2023-11-15T21:14:12.570Z,2.90
2023-11-15T21:16:40.720Z,1.73
2023-11-15T21:19:10.743Z,1.73
2023-11-15T21:21:38.457Z,2.17
2023-11-15T21:24:09.452Z,2.20
2023-11-15T21:26:36.688Z,1.80
2023-11-15T21:29:09.867Z,1.77
2023-11-15T21:31:38.287Z,2.10
2023-11-15T21:34:07.263Z,2.10
2023-11-15T21:36:38.173Z,2.05
2023-11-15T21:39:07.312Z,3.20
2023-11-15T21:41:34.440Z,2.13
2023-11-15T21:44:02.706Z,2.00
2023-11-15T21:46:32.440Z,2.22
2023-11-15T21:49:01.886Z,2.50
2023-11-15T21:51:29.183Z,2.53
2023-11-15T21:53:57.393Z,2.40
2023-11-15T21:56:24.352Z,2.30
2023-11-15T21:58:51.342Z,2.33
2023-11-15T22:01:18.443Z,1.98
2023-11-15T22:03:46.167Z,2.63
2023-11-15T22:06:13.170Z,2.60
2023-11-15T22:08:40.390Z,2.30
2023-11-15T22:11:07.722Z,2.92
2023-11-15T22:13:34.984Z,2.97
2023-11-15T22:16:02.417Z,2.47
2023-11-15T22:18:30.733Z,3.10
2023-11-15T22:20:58.480Z,2.78
2023-11-15T22:23:26.053Z,2.05
2023-11-15T22:25:53.173Z,1.90
2023-11-15T22:28:20.304Z,2.53
2023-11-15T22:30:48.425Z,2.08
2023-11-15T22:33:15.879Z,3.03
2023-11-15T22:35:49.710Z,5.38
2023-11-15T22:38:17.904Z,8.32
2023-11-15T22:40:44.904Z,5.75
2023-11-15T22:43:12.234Z,2.30
2023-11-15T22:45:39.490Z,1.75
2023-11-15T22:48:07.534Z,2.47
2023-11-15T22:50:34.698Z,2.65
2023-11-15T22:53:01.744Z,2.17
2023-11-15T22:55:28.726Z,1.60
2023-11-15T22:57:55.623Z,2.53
2023-11-15T23:00:37.955Z,2.28
2023-11-15T23:03:10.817Z,2.08
2023-11-15T23:05:40.106Z,2.95
2023-11-15T23:08:10.584Z,2.17
2023-11-15T23:10:40.052Z,2.30
2023-11-15T23:13:07.551Z,1.90
2023-11-15T23:15:35.107Z,2.00
2023-11-15T23:18:02.552Z,2.45
2023-11-15T23:20:35.280Z,2.60
2023-11-15T23:23:03.281Z,2.88
2023-11-15T23:25:30.777Z,3.10
2023-11-15T23:27:57.848Z,2.55
2023-11-15T23:30:25.607Z,2.38
2023-11-15T23:32:56.427Z,2.30
2023-11-15T23:35:26.533Z,2.15
2023-11-15T23:38:04.740Z,2.30
2023-11-15T23:40:32.216Z,2.17
2023-11-15T23:42:59.182Z,3.00
2023-11-15T23:45:26.279Z,2.63
2023-11-15T23:47:53.909Z,2.40
2023-11-15T23:50:24.542Z,1.80
2023-11-15T23:52:54.665Z,2.72
2023-11-15T23:55:22.551Z,2.30
2023-11-15T23:57:50.337Z,2.20
